createdAt,value
2018-08-30T08:23:30.351Z,16.94
2018-08-30T08:25:59.289Z,17.00
2018-08-30T08:28:28.009Z,17.03
2018-08-30T08:30:56.614Z,17.25
2018-08-30T08:33:25.204Z,17.30
2018-08-30T08:35:53.865Z,17.38
2018-08-30T08:38:22.461Z,17.44
2018-08-30T08:40:51.095Z,17.51
2018-08-30T08:43:19.874Z,17.49
2018-08-30T08:45:48.550Z,17.53
2018-08-30T08:48:17.195Z,17.47
2018-08-30T08:50:46.146Z,17.43
2018-08-30T08:53:14.828Z,17.24
2018-08-30T08:55:43.593Z,17.13
2018-08-30T08:58:12.223Z,17.03
2018-08-30T09:00:40.837Z,17.03
2018-08-30T09:03:09.506Z,16.73
2018-08-30T09:05:38.202Z,17.17
2018-08-30T09:08:06.907Z,17.32
2018-08-30T09:10:35.549Z,17.31
2018-08-30T09:13:04.144Z,17.19
2018-08-30T09:15:33.101Z,17.12
2018-08-30T09:18:01.772Z,17.10
2018-08-30T09:20:30.420Z,17.06
2018-08-30T09:22:59.214Z,16.98
2018-08-30T09:25:27.842Z,17.11
2018-08-30T09:27:56.872Z,17.29
2018-08-30T09:30:25.472Z,17.36
2018-08-30T09:32:54.191Z,17.43
2018-08-30T09:35:23.205Z,17.38
2018-08-30T09:37:51.834Z,17.28
2018-08-30T09:40:20.444Z,17.18
2018-08-30T09:42:49.119Z,17.13
2018-08-30T09:45:17.758Z,17.03
2018-08-30T09:47:46.421Z,17.07
2018-08-30T09:50:15.134Z,17.09
2018-08-30T09:52:43.889Z,17.25
2018-08-30T09:55:12.500Z,17.38
2018-08-30T09:57:41.215Z,17.34
2018-08-30T10:00:13.740Z,17.35
2018-08-30T10:02:47.689Z,17.32
2018-08-30T10:05:16.340Z,17.21
2018-08-30T10:07:45.083Z,17.08
2018-08-30T10:10:13.686Z,17.09
2018-08-30T10:12:42.334Z,17.11
2018-08-30T10:15:11.063Z,17.09
2018-08-30T10:17:39.746Z,17.07
2018-08-30T10:20:08.420Z,17.11
2018-08-30T10:22:37.088Z,17.13
2018-08-30T10:25:05.966Z,16.66
2018-08-30T10:27:34.641Z,17.10
2018-08-30T10:30:03.370Z,17.02
2018-08-30T10:32:32.178Z,17.22
2018-08-30T10:35:00.755Z,17.29
2018-08-30T10:37:29.360Z,17.41
2018-08-30T10:39:57.981Z,17.48
2018-08-30T10:42:26.749Z,17.49
2018-08-30T10:44:55.425Z,17.60
2018-08-30T10:47:24.198Z,17.59
2018-08-30T10:49:52.975Z,17.67
2018-08-30T10:52:21.565Z,17.73
2018-08-30T10:54:50.262Z,17.85
2018-08-30T10:57:18.880Z,17.78
2018-08-30T10:59:47.513Z,17.74
2018-08-30T11:02:16.247Z,17.79
2018-08-30T11:04:45.037Z,17.80
2018-08-30T11:07:13.707Z,17.78
2018-08-30T11:09:42.356Z,17.82
2018-08-30T11:12:11.033Z,17.89
2018-08-30T11:14:39.663Z,17.88
2018-08-30T11:17:08.322Z,17.84
2018-08-30T11:19:36.959Z,17.84
2018-08-30T11:22:05.541Z,17.74
2018-08-30T11:24:34.209Z,17.77
2018-08-30T11:27:02.787Z,17.74
2018-08-30T11:29:31.501Z,17.80
2018-08-30T11:32:00.125Z,17.83
2018-08-30T11:34:28.803Z,17.79
2018-08-30T11:36:57.604Z,17.68
2018-08-30T11:39:26.556Z,17.72
2018-08-30T11:41:56.337Z,17.78
2018-08-30T11:44:25.019Z,17.93
2018-08-30T11:46:53.700Z,18.12
2018-08-30T11:49:22.427Z,18.28
2018-08-30T11:51:51.157Z,18.38
2018-08-30T11:54:19.891Z,18.47
2018-08-30T11:56:48.431Z,18.60
2018-08-30T11:59:17.186Z,18.72
2018-08-30T12:01:45.770Z,18.71
2018-08-30T12:04:14.609Z,18.42
2018-08-30T12:06:43.234Z,18.12
2018-08-30T12:09:12.071Z,18.09
2018-08-30T12:11:41.419Z,17.87
2018-08-30T12:14:10.246Z,17.82
2018-08-30T12:16:39.094Z,17.56
2018-08-30T12:19:07.616Z,17.15
2018-08-30T12:21:36.127Z,16.86
2018-08-30T12:24:04.711Z,16.77
2018-08-30T12:26:33.284Z,16.63
2018-08-30T12:29:01.899Z,16.67
2018-08-30T12:31:30.545Z,16.77
2018-08-30T12:33:59.117Z,16.79
2018-08-30T12:36:27.626Z,16.99
2018-08-30T12:38:56.219Z,16.98
2018-08-30T12:41:24.815Z,17.03
2018-08-30T12:43:53.436Z,17.05
2018-08-30T12:46:21.898Z,17.11
2018-08-30T12:48:50.474Z,16.93
2018-08-30T12:51:19.048Z,16.77
2018-08-30T12:53:47.518Z,16.81
2018-08-30T12:56:16.137Z,16.90
2018-08-30T12:58:45.136Z,16.95
2018-08-30T13:01:13.676Z,16.92
2018-08-30T13:03:42.126Z,16.81
2018-08-30T13:06:10.820Z,16.80
2018-08-30T13:08:39.480Z,16.85
2018-08-30T13:11:08.311Z,16.90
2018-08-30T13:13:36.826Z,16.95
2018-08-30T13:16:05.402Z,17.02
2018-08-30T13:18:33.987Z,17.08
2018-08-30T13:21:02.568Z,16.97
2018-08-30T13:23:31.047Z,17.14
2018-08-30T13:25:59.660Z,17.40
2018-08-30T13:28:28.142Z,17.50
2018-08-30T13:30:56.691Z,17.47
2018-08-30T13:33:25.483Z,17.50
2018-08-30T13:35:53.979Z,17.47
2018-08-30T13:38:22.643Z,17.34
2018-08-30T13:40:51.121Z,17.27
2018-08-30T13:43:19.687Z,17.29
2018-08-30T13:45:48.003Z,17.27
2018-08-30T13:48:16.349Z,17.25
2018-08-30T13:50:45.151Z,17.28
2018-08-30T13:53:13.849Z,17.34
2018-08-30T13:55:42.506Z,17.44
2018-08-30T13:58:10.698Z,17.46
2018-08-30T14:00:39.738Z,17.50
2018-08-30T14:03:08.044Z,17.51
2018-08-30T14:05:36.510Z,17.67
2018-08-30T14:08:05.054Z,17.79
2018-08-30T14:10:33.715Z,17.62
2018-08-30T14:13:02.078Z,17.49
2018-08-30T14:15:30.680Z,17.45
2018-08-30T14:17:58.921Z,17.46
2018-08-30T14:20:27.416Z,17.46
2018-08-30T14:22:56.201Z,17.38
2018-08-30T14:25:24.760Z,17.39
2018-08-30T14:27:53.302Z,17.50
2018-08-30T14:30:21.877Z,17.48
2018-08-30T14:32:50.461Z,17.47
2018-08-30T14:35:18.958Z,17.36
2018-08-30T14:37:47.436Z,17.41
2018-08-30T14:40:16.131Z,17.29
2018-08-30T14:42:44.553Z,17.28
2018-08-30T14:45:13.295Z,17.24
2018-08-30T14:47:42.155Z,17.15
2018-08-30T14:50:10.396Z,17.07
2018-08-30T14:52:39.154Z,17.02
2018-08-30T14:55:07.966Z,16.92
2018-08-30T14:57:36.640Z,16.91
2018-08-30T15:00:05.342Z,16.99
2018-08-30T15:02:33.768Z,17.03
2018-08-30T15:05:02.299Z,17.07
2018-08-30T15:07:30.856Z,17.13
2018-08-30T15:09:59.459Z,17.14
2018-08-30T15:12:28.104Z,17.14
2018-08-30T15:14:56.689Z,17.12
2018-08-30T15:17:25.278Z,17.16
2018-08-30T15:19:53.812Z,17.07
2018-08-30T15:22:22.420Z,17.08
2018-08-30T15:24:50.964Z,17.08
2018-08-30T15:27:19.720Z,17.06
2018-08-30T15:29:48.077Z,17.09
2018-08-30T15:32:16.659Z,17.16
2018-08-30T15:34:45.178Z,17.21
2018-08-30T15:37:13.728Z,17.26
2018-08-30T15:39:42.331Z,17.20
2018-08-30T15:42:11.097Z,17.25
2018-08-30T15:44:39.564Z,17.16
2018-08-30T15:47:08.140Z,17.10
2018-08-30T15:49:36.777Z,17.07
2018-08-30T15:52:05.424Z,17.15
2018-08-30T15:54:33.958Z,17.16
2018-08-30T15:57:02.633Z,17.11
2018-08-30T15:59:31.160Z,17.06
2018-08-30T16:01:59.732Z,17.02
2018-08-30T16:04:28.248Z,17.01
2018-08-30T16:06:57.804Z,17.00
2018-08-30T16:09:26.406Z,17.03
2018-08-30T16:11:54.955Z,17.03
2018-08-30T16:14:23.520Z,16.97
2018-08-30T16:16:52.221Z,16.99
2018-08-30T16:19:20.914Z,16.97
2018-08-30T16:21:49.558Z,16.85
2018-08-30T16:24:18.240Z,16.76
2018-08-30T16:26:46.930Z,16.77
2018-08-30T16:29:15.586Z,16.74
2018-08-30T16:31:44.273Z,16.68
2018-08-30T16:34:12.832Z,16.70
2018-08-30T16:36:41.445Z,16.79
2018-08-30T16:39:11.221Z,16.88
2018-08-30T16:41:39.951Z,16.93
2018-08-30T16:44:09.599Z,17.06
2018-08-30T16:46:40.279Z,16.99
2018-08-30T16:49:09.092Z,16.97
2018-08-30T16:51:38.791Z,16.90
2018-08-30T16:54:07.539Z,16.94
2018-08-30T16:56:39.073Z,16.97
2018-08-30T16:59:07.758Z,17.00
2018-08-30T17:01:38.337Z,16.98
2018-08-30T17:04:11.297Z,17.05
2018-08-30T17:06:40.190Z,17.06
2018-08-30T17:09:10.012Z,17.18
2018-08-30T17:11:38.712Z,17.16
2018-08-30T17:14:07.354Z,17.19
2018-08-30T17:16:35.940Z,17.20
2018-08-30T17:19:16.372Z,17.09
2018-08-30T17:21:45.082Z,17.07
2018-08-30T17:24:13.578Z,16.89
2018-08-30T17:26:43.188Z,16.85
2018-08-30T17:29:11.752Z,16.83
2018-08-30T17:31:40.320Z,16.70
2018-08-30T17:34:08.851Z,16.68
2018-08-30T17:36:37.403Z,16.62
2018-08-30T17:39:07.280Z,16.57
2018-08-30T17:41:35.845Z,16.54
2018-08-30T17:44:05.977Z,16.43
2018-08-30T17:46:34.546Z,16.40
2018-08-30T17:49:03.392Z,16.38
2018-08-30T17:51:33.244Z,16.25
2018-08-30T17:54:01.925Z,16.14
2018-08-30T17:56:30.704Z,16.11
2018-08-30T17:59:05.967Z,16.05
2018-08-30T18:01:35.299Z,16.01
2018-08-30T18:55:28.200Z,15.08
2018-08-30T20:11:10.134Z,13.75
2018-08-30T20:13:38.950Z,13.77
2018-08-30T20:16:07.509Z,13.71
2018-08-30T20:18:36.109Z,13.70
2018-08-30T20:21:04.841Z,13.66
2018-08-30T20:23:33.398Z,13.66
2018-08-30T20:26:01.972Z,13.60
2018-08-30T20:28:30.649Z,13.55
2018-08-30T20:30:59.491Z,13.60
2018-08-30T20:33:28.162Z,13.61
2018-08-30T20:35:56.872Z,13.59
2018-08-30T20:38:25.455Z,13.56
2018-08-30T20:40:53.991Z,13.54
2018-08-30T20:43:23.036Z,13.49
2018-08-30T20:45:51.524Z,13.46
2018-08-30T20:48:20.067Z,13.46
2018-08-30T20:50:48.667Z,13.48
2018-08-30T20:53:17.232Z,13.39
2018-08-30T20:55:45.873Z,13.36
2018-08-30T20:58:14.443Z,13.37
2018-08-30T21:00:43.000Z,13.36
2018-08-30T21:03:11.638Z,13.39
2018-08-30T21:05:40.255Z,13.34
2018-08-30T21:08:08.925Z,13.28
2018-08-30T21:10:37.587Z,13.23
2018-08-30T21:13:06.173Z,13.21
2018-08-30T21:15:34.724Z,13.21
2018-08-30T21:18:03.686Z,13.21
2018-08-30T21:20:32.191Z,13.15
2018-08-30T21:23:00.778Z,13.15
2018-08-30T21:25:31.558Z,13.10
2018-08-30T21:28:00.014Z,13.11
2018-08-30T21:30:28.589Z,13.10
2018-08-30T21:32:57.095Z,13.13
2018-08-30T21:35:25.618Z,13.14
2018-08-30T21:37:54.256Z,13.16
2018-08-30T21:40:22.764Z,13.16
2018-08-30T21:42:51.315Z,13.16
2018-08-30T21:45:19.866Z,13.13
2018-08-30T21:47:48.384Z,13.08
2018-08-30T21:50:16.888Z,13.02
2018-08-30T21:52:45.396Z,13.03
2018-08-30T21:55:13.984Z,12.98
2018-08-30T21:57:42.560Z,12.94
2018-08-30T22:00:11.173Z,12.93
2018-08-30T22:02:39.960Z,12.95
2018-08-30T22:05:08.431Z,12.91
2018-08-30T22:07:37.009Z,12.85
2018-08-30T22:10:06.161Z,12.81
2018-08-30T22:12:34.694Z,12.83
2018-08-30T22:15:03.243Z,12.78
2018-08-30T22:17:31.712Z,12.72
2018-08-30T22:20:00.304Z,12.67
2018-08-30T22:22:28.870Z,12.68
2018-08-30T22:24:57.553Z,12.67
2018-08-30T22:27:26.088Z,12.57
2018-08-30T22:29:54.625Z,12.55
2018-08-30T22:32:23.284Z,12.48
2018-08-30T22:34:51.755Z,12.43
2018-08-30T22:37:20.269Z,12.36
2018-08-30T22:39:48.800Z,12.31
2018-08-30T22:42:17.344Z,12.30
2018-08-30T22:44:45.880Z,12.30
2018-08-30T22:47:14.390Z,12.29
2018-08-30T22:49:42.956Z,12.25
2018-08-30T22:52:11.649Z,12.25
2018-08-30T22:54:40.257Z,12.23
2018-08-30T22:57:08.813Z,12.22
2018-08-30T22:59:37.415Z,12.19
2018-08-30T23:02:05.995Z,12.19
2018-08-30T23:04:34.548Z,12.18
2018-08-30T23:07:03.448Z,12.20
2018-08-30T23:09:31.989Z,12.07
2018-08-30T23:12:00.502Z,12.04
2018-08-30T23:14:29.044Z,11.97
2018-08-30T23:16:58.060Z,11.92
2018-08-30T23:19:26.592Z,11.88
2018-08-30T23:21:55.124Z,11.81
2018-08-30T23:24:23.603Z,11.73
2018-08-30T23:26:52.135Z,11.67
2018-08-30T23:29:20.629Z,11.69
2018-08-30T23:31:49.161Z,11.72
2018-08-30T23:34:17.708Z,11.60
2018-08-30T23:36:46.181Z,11.53
2018-08-30T23:39:15.142Z,11.52
2018-08-30T23:41:43.671Z,11.53
2018-08-30T23:44:12.217Z,11.54
2018-08-30T23:46:40.781Z,11.50
2018-08-30T23:49:09.244Z,11.49
2018-08-30T23:51:37.816Z,11.53
2018-08-30T23:54:07.038Z,11.47
2018-08-30T23:56:35.548Z,11.45
2018-08-30T23:59:15.163Z,11.42
